Time;durP1;ratioP1;P1;durP2;ratioP2;P2;SDS_P1;SDS_P2;PMS_P1;PMS_P2;Temp;Humidity;BMP_temperature;BMP_pressure;BME280_temperature;BME280_humidity;BME280_pressure;Samples;Min_cycle;Max_cycle;Signal;HPM_P1;HPM_P2
2021/10/15 00:02:17;;;;;;;2.15;1.13;;;;;;;3.55;100.00;93177.78;5028063;28;20053;-82
2021/10/15 00:04:43;;;;;;;1.05;0.40;;;;;;;3.43;100.00;93162.16;5028481;28;20416;-83
2021/10/15 00:07:10;;;;;;;2.13;0.82;;;;;;;3.52;100.00;93161.16;5028753;28;20045;-82
2021/10/15 00:09:37;;;;;;;1.42;0.73;;;;;;;3.46;100.00;93147.38;5028789;28;20051;-82
2021/10/15 00:12:05;;;;;;;0.93;0.43;;;;;;;3.53;100.00;93165.28;5028581;28;20049;-82
2021/10/15 00:14:33;;;;;;;0.93;0.68;;;;;;;3.12;100.00;93118.03;5028842;28;20045;-84
2021/10/15 00:17:00;;;;;;;2.10;1.00;;;;;;;3.46;100.00;93162.63;5028419;28;20103;-82
2021/10/15 00:19:27;;;;;;;2.33;1.05;;;;;;;3.53;100.00;93160.22;5030193;28;20057;-83
2021/10/15 00:21:54;;;;;;;2.95;0.68;;;;;;;3.56;100.00;93159.09;5032348;28;20099;-82
2021/10/15 00:24:21;;;;;;;1.27;0.73;;;;;;;3.68;100.00;93147.56;5031964;28;20481;-83
2021/10/15 00:26:48;;;;;;;1.65;0.93;;;;;;;3.64;100.00;93130.28;5031854;28;20056;-83
2021/10/15 00:29:14;;;;;;;1.65;0.70;;;;;;;3.77;100.00;93161.00;5032134;28;20053;-82
2021/10/15 00:31:43;;;;;;;1.40;0.90;;;;;;;3.79;100.00;93154.00;5032165;28;20060;-82
2021/10/15 00:34:09;;;;;;;1.85;0.90;;;;;;;3.76;100.00;93151.00;5031701;28;20060;-83
2021/10/15 00:36:36;;;;;;;1.35;0.82;;;;;;;3.62;100.00;93133.00;5032011;28;20041;-83
2021/10/15 00:39:03;;;;;;;1.45;0.52;;;;;;;3.55;100.00;93157.47;5031618;28;20053;-83
2021/10/15 00:41:30;;;;;;;1.50;0.80;;;;;;;3.69;100.00;93145.81;5032149;28;20050;-83
2021/10/15 00:44:01;;;;;;;1.63;0.65;;;;;;;3.63;100.00;93137.13;5031636;28;20049;-83
2021/10/15 00:46:29;;;;;;;1.60;0.45;;;;;;;3.55;100.00;93132.88;5031679;28;20095;-83
2021/10/15 00:48:57;;;;;;;1.67;0.70;;;;;;;3.64;100.00;93128.53;5031483;28;20811;-83
2021/10/15 00:51:25;;;;;;;1.50;0.52;;;;;;;3.72;100.00;93125.16;5031609;28;20053;-83
2021/10/15 00:53:52;;;;;;;1.70;0.90;;;;;;;3.28;100.00;93055.47;5031619;28;20123;-84
2021/10/15 00:56:20;;;;;;;1.20;0.60;;;;;;;3.82;100.00;93135.09;5031419;28;20053;-82
2021/10/15 00:58:47;;;;;;;1.58;0.60;;;;;;;3.80;100.00;93120.00;5031736;28;20045;-80
2021/10/15 01:01:14;;;;;;;1.77;0.77;;;;;;;3.71;100.00;93111.66;5031496;28;20057;-85
2021/10/15 01:03:40;;;;;;;1.52;0.90;;;;;;;3.20;100.00;93031.69;5031529;28;20045;-84
2021/10/15 01:06:09;;;;;;;2.22;0.82;;;;;;;3.96;100.00;93118.31;5031174;28;20528;-85
2021/10/15 01:08:40;;;;;;;3.33;1.30;;;;;;;3.57;100.00;93046.38;5031458;28;20045;-84
2021/10/15 01:11:08;;;;;;;1.42;0.77;;;;;;;3.62;100.00;93051.72;5031328;28;20046;-85
2021/10/15 01:13:36;;;;;;;1.60;0.95;;;;;;;4.03;100.00;93115.88;5031060;28;20504;-85
2021/10/15 01:16:04;;;;;;;2.20;1.17;;;;;;;3.87;100.00;93075.19;5030787;28;20053;-85
2021/10/15 01:18:31;;;;;;;1.73;0.82;;;;;;;3.85;100.00;93071.25;5031277;28;20140;-84
2021/10/15 01:21:00;;;;;;;2.78;1.23;;;;;;;4.14;100.00;93097.69;5030738;28;20519;-86
2021/10/15 01:23:27;;;;;;;7.07;2.72;;;;;;;3.61;100.00;93009.47;5031110;28;20058;-86
2021/10/15 01:25:55;;;;;;;9.43;4.03;;;;;;;4.22;100.00;93100.13;5031122;28;20050;-85
2021/10/15 01:28:24;;;;;;;8.55;4.18;;;;;;;4.29;100.00;93095.16;5030668;28;20144;-85
2021/10/15 01:30:51;;;;;;;9.80;4.07;;;;;;;4.30;100.00;93086.56;5030268;28;20079;-84
2021/10/15 01:33:18;;;;;;;6.68;3.40;;;;;;;4.17;100.00;93066.81;5030642;28;20100;-84
2021/10/15 01:35:45;;;;;;;5.13;1.85;;;;;;;3.51;100.00;93007.19;5030374;28;20049;-85
2021/10/15 01:38:13;;;;;;;2.38;1.02;;;;;;;4.07;100.00;93089.94;5030821;28;20061;-84
2021/10/15 01:40:41;;;;;;;2.00;0.90;;;;;;;3.93;100.00;93085.63;5030394;28;20111;-86
2021/10/15 01:43:09;;;;;;;1.92;0.98;;;;;;;3.89;100.00;93092.78;5030746;28;20042;-87
2021/10/15 01:45:36;;;;;;;2.83;1.25;;;;;;;3.23;100.00;93014.56;5030580;28;20084;-87
2021/10/15 01:48:03;;;;;;;2.25;1.20;;;;;;;2.91;100.00;92974.78;5030559;28;20049;-87
2021/10/15 01:50:30;;;;;;;2.30;1.00;;;;;;;3.55;100.00;93053.34;5030622;28;20488;-86
2021/10/15 01:52:59;;;;;;;1.75;0.70;;;;;;;3.72;100.00;93076.88;5030308;28;20049;-87
2021/10/15 01:55:27;;;;;;;1.60;0.80;;;;;;;3.78;100.00;93075.41;5030325;28;20045;-86
2021/10/15 01:57:54;;;;;;;1.60;0.88;;;;;;;3.68;100.00;93057.84;5030158;28;20056;-87
2021/10/15 02:00:21;;;;;;;1.67;0.70;;;;;;;3.98;100.00;93086.69;5030179;28;20071;-86
2021/10/15 02:02:48;;;;;;;1.92;0.70;;;;;;;3.73;100.00;93075.91;5030072;28;20049;-85
2021/10/15 02:05:17;;;;;;;3.88;0.80;;;;;;;3.30;100.00;93003.56;5030348;28;20049;-85
2021/10/15 02:07:45;;;;;;;1.58;0.82;;;;;;;3.18;100.00;93020.91;5030136;28;20060;-86
2021/10/15 02:10:13;;;;;;;4.90;2.05;;;;;;;3.73;100.00;93066.56;5029969;28;20061;-87
2021/10/15 02:12:42;;;;;;;12.15;5.55;;;;;;;3.74;100.00;93082.56;5029856;28;20060;-85
2021/10/15 02:15:11;;;;;;;6.97;2.30;;;;;;;3.16;100.00;92997.44;5030186;28;20045;-86
2021/10/15 02:17:40;;;;;;;4.88;2.17;;;;;;;3.81;100.00;93065.72;5029781;28;20064;-84
2021/10/15 02:20:09;;;;;;;11.63;4.53;;;;;;;3.37;100.00;93040.97;5029632;28;20046;-85
2021/10/15 02:22:37;;;;;;;9.52;3.30;;;;;;;3.55;100.00;93066.03;5029786;28;20099;-85
2021/10/15 02:25:05;;;;;;;6.03;2.65;;;;;;;3.31;100.00;93017.81;5029733;28;20049;-85
2021/10/15 02:27:32;;;;;;;25.40;8.95;;;;;;;3.52;100.00;93062.09;5029735;28;20468;-85
2021/10/15 02:30:00;;;;;;;16.52;6.22;;;;;;;3.63;100.00;93042.34;5029769;28;20521;-84
2021/10/15 02:32:27;;;;;;;11.85;4.53;;;;;;;3.52;100.00;93039.25;5029891;28;20103;-85
2021/10/15 02:34:54;;;;;;;4.72;1.50;;;;;;;3.51;100.00;93036.91;5029567;28;20056;-84
2021/10/15 02:37:21;;;;;;;2.40;1.33;;;;;;;3.61;100.00;93040.75;5029467;28;20505;-84
2021/10/15 02:39:48;;;;;;;2.80;1.90;;;;;;;3.60;100.00;93035.84;5029652;28;20096;-84
2021/10/15 02:42:15;;;;;;;3.35;1.48;;;;;;;3.68;100.00;93035.81;5029629;28;20056;-87
2021/10/15 02:44:42;;;;;;;5.55;2.13;;;;;;;3.67;100.00;93031.69;5029875;28;20055;-85
2021/10/15 02:47:11;;;;;;;1.80;0.82;;;;;;;3.66;100.00;93025.00;5029897;28;20053;-86
2021/10/15 02:49:38;;;;;;;3.65;1.88;;;;;;;3.49;100.00;93024.34;5030204;28;20053;-85
2021/10/15 02:52:05;;;;;;;4.70;2.72;;;;;;;3.38;100.00;93024.75;5029659;28;20051;-86
2021/10/15 02:54:32;;;;;;;3.55;2.17;;;;;;;3.18;100.00;92975.22;5029319;28;20092;-84
2021/10/15 02:56:59;;;;;;;3.65;1.63;;;;;;;3.53;100.00;93027.34;5029404;28;20500;-85
2021/10/15 02:59:25;;;;;;;2.38;1.08;;;;;;;3.20;100.00;92953.00;5029352;28;20053;-84
2021/10/15 03:01:53;;;;;;;3.58;1.55;;;;;;;3.78;100.00;93037.28;5029011;28;20045;-84
2021/10/15 03:04:21;;;;;;;2.63;1.10;;;;;;;3.36;100.00;92953.84;5029642;28;20045;-84
2021/10/15 03:06:48;;;;;;;2.28;1.02;;;;;;;3.78;100.00;93025.38;5029854;28;20053;-84
2021/10/15 03:09:15;;;;;;;1.92;1.15;;;;;;;3.82;100.00;93036.00;5029752;28;20103;-84
2021/10/15 03:11:42;;;;;;;1.50;0.70;;;;;;;3.59;100.00;92976.66;5029980;28;20151;-84
2021/10/15 03:14:09;;;;;;;2.28;1.10;;;;;;;3.83;100.00;93028.22;5029342;28;20053;-83
2021/10/15 03:16:36;;;;;;;3.33;1.05;;;;;;;3.84;100.00;93029.00;5028950;28;20136;-84
2021/10/15 03:19:02;;;;;;;2.92;1.02;;;;;;;3.98;100.00;93019.81;5028788;28;20049;-83
2021/10/15 03:21:31;;;;;;;5.18;1.60;;;;;;;3.99;100.00;93018.88;5029088;28;20053;-84
2021/10/15 03:23:58;;;;;;;2.58;1.10;;;;;;;4.05;100.00;93012.28;5029235;28;20050;-83
2021/10/15 03:26:24;;;;;;;3.20;1.60;;;;;;;4.15;100.00;93022.97;5028860;28;20049;-84
2021/10/15 03:28:51;;;;;;;1.38;0.82;;;;;;;4.07;100.00;93008.59;5029034;28;20049;-83
2021/10/15 03:31:18;;;;;;;9.02;4.72;;;;;;;3.79;100.00;92965.22;5028855;28;20515;-84
2021/10/15 03:33:45;;;;;;;6.15;2.92;;;;;;;4.17;100.00;93002.47;5028731;28;20136;-84
2021/10/15 03:36:12;;;;;;;9.55;4.22;;;;;;;4.24;100.00;93006.69;5029156;28;20053;-84
2021/10/15 03:38:40;;;;;;;11.77;4.63;;;;;;;3.84;100.00;92951.00;5028875;28;20091;-84
2021/10/15 03:41:07;;;;;;;1.30;0.68;;;;;;;3.99;100.00;92961.19;5028956;28;20060;-84
2021/10/15 03:43:34;;;;;;;2.35;1.52;;;;;;;4.27;100.00;92990.28;5028803;28;20056;-84
2021/10/15 03:46:01;;;;;;;48.53;24.73;;;;;;;4.26;100.00;93014.91;5028971;28;20164;-84
2021/10/15 03:48:27;;;;;;;24.95;11.88;;;;;;;4.07;100.00;92993.34;5028903;28;20496;-83
2021/10/15 03:50:54;;;;;;;8.95;3.72;;;;;;;4.24;100.00;93010.97;5028967;28;20049;-84
2021/10/15 03:53:21;;;;;;;10.50;3.95;;;;;;;4.12;100.00;93005.56;5029005;28;20053;-83
2021/10/15 03:55:49;;;;;;;2.60;1.30;;;;;;;3.84;100.00;92957.88;5032602;28;20052;-83
2021/10/15 03:58:16;;;;;;;12.23;4.60;;;;;;;4.17;100.00;92989.75;5032718;28;20050;-83
2021/10/15 04:00:43;;;;;;;5.53;2.75;;;;;;;4.15;100.00;92974.69;5032413;28;20337;-84
2021/10/15 04:03:10;;;;;;;5.25;2.45;;;;;;;4.14;100.00;92958.66;5032641;28;20045;-83
2021/10/15 04:05:37;;;;;;;4.63;2.72;;;;;;;4.35;100.00;92985.09;5032936;28;20503;-83
2021/10/15 04:08:04;;;;;;;8.15;3.10;;;;;;;4.37;100.00;92975.56;5032783;28;20052;-83
2021/10/15 04:10:30;;;;;;;7.72;2.08;;;;;;;4.51;100.00;92990.97;5033100;28;20072;-84
2021/10/15 04:12:59;;;;;;;6.25;2.95;;;;;;;3.87;100.00;92891.44;5033055;28;20049;-84
2021/10/15 04:15:25;;;;;;;7.47;3.63;;;;;;;4.61;100.00;93005.94;5031850;28;20492;-84
2021/10/15 04:17:52;;;;;;;6.47;3.00;;;;;;;4.57;100.00;92994.56;5032432;28;20056;-84
2021/10/15 04:20:19;;;;;;;6.97;4.00;;;;;;;4.27;100.00;92947.06;5032132;28;20053;-84
2021/10/15 04:22:46;;;;;;;9.52;4.20;;;;;;;4.75;100.00;93017.88;5032067;28;20053;-84
2021/10/15 04:25:13;;;;;;;5.45;2.55;;;;;;;4.64;100.00;92992.88;5032304;28;20056;-84
2021/10/15 04:27:39;;;;;;;4.82;2.38;;;;;;;4.25;100.00;92944.69;5032132;28;20049;-84
2021/10/15 04:30:09;;;;;;;8.32;3.97;;;;;;;4.25;100.00;92944.69;5031938;28;20054;-83
2021/10/15 04:32:36;;;;;;;4.38;2.50;;;;;;;4.58;100.00;93002.00;5032137;28;20045;-83
2021/10/15 04:35:03;;;;;;;3.15;1.75;;;;;;;4.15;100.00;92944.19;5031565;28;20052;-83
2021/10/15 04:37:30;;;;;;;4.60;2.47;;;;;;;4.57;100.00;92999.66;5031786;28;20056;-84
2021/10/15 04:39:56;;;;;;;4.60;2.78;;;;;;;4.60;100.00;92994.19;5031703;28;20052;-83
2021/10/15 04:42:23;;;;;;;2.75;1.40;;;;;;;4.52;100.00;92983.16;5031554;28;20057;-83
2021/10/15 04:44:52;;;;;;;3.83;1.90;;;;;;;4.54;100.00;93001.56;5031549;28;20589;-84
2021/10/15 04:47:20;;;;;;;3.03;2.05;;;;;;;4.09;100.00;92939.81;5031661;28;20045;-84
2021/10/15 04:49:46;;;;;;;6.28;2.60;;;;;;;4.55;100.00;92998.06;5031366;28;20045;-84
2021/10/15 04:52:13;;;;;;;3.65;1.40;;;;;;;4.31;100.00;92965.31;5031409;28;20575;-83
2021/10/15 04:54:40;;;;;;;33.28;18.00;;;;;;;4.35;100.00;92992.72;5031471;28;20057;-84
2021/10/15 04:57:07;;;;;;;17.85;9.00;;;;;;;4.37;100.00;92990.03;5031206;28;20060;-84
2021/10/15 04:59:34;;;;;;;17.45;8.85;;;;;;;4.45;100.00;92995.03;5031599;28;20389;-84
2021/10/15 05:02:01;;;;;;;15.60;6.32;;;;;;;3.97;100.00;92931.81;5031394;28;20061;-84
2021/10/15 05:04:29;;;;;;;15.38;7.85;;;;;;;4.52;100.00;93000.97;5031184;28;20053;-84
2021/10/15 05:06:58;;;;;;;19.48;8.85;;;;;;;4.59;100.00;93010.44;5030111;28;20056;-84
2021/10/15 05:09:35;;;;;;;15.88;7.45;;;;;;;4.59;100.00;93016.31;5031060;28;20056;-84
2021/10/15 05:12:04;;;;;;;17.40;6.85;;;;;;;4.30;100.00;92973.91;5031371;28;20610;-84
2021/10/15 05:14:32;;;;;;;18.80;8.80;;;;;;;4.62;100.00;93010.06;5031017;28;20049;-84
2021/10/15 05:16:59;;;;;;;21.83;9.98;;;;;;;4.27;100.00;93006.31;5031308;28;20069;-83
2021/10/15 05:19:26;;;;;;;28.58;12.77;;;;;;;4.40;100.00;92997.31;5031014;28;20108;-83
2021/10/15 05:21:54;;;;;;;14.90;6.80;;;;;;;4.51;100.00;92993.50;5031034;28;20103;-83
2021/10/15 05:24:21;;;;;;;8.68;4.25;;;;;;;4.53;100.00;92981.41;5030931;28;20050;-85
2021/10/15 05:26:48;;;;;;;7.88;4.00;;;;;;;4.31;100.00;92963.56;5030850;28;20046;-84
2021/10/15 05:29:15;;;;;;;4.68;2.22;;;;;;;4.66;100.00;92989.19;5030758;28;20049;-84
2021/10/15 05:31:42;;;;;;;6.95;3.28;;;;;;;4.41;100.00;92938.63;5030713;28;20053;-84
2021/10/15 05:34:09;;;;;;;6.18;3.00;;;;;;;4.85;100.00;92999.00;5031103;28;20105;-84
2021/10/15 05:36:36;;;;;;;10.38;4.18;;;;;;;4.50;100.00;92924.03;5030970;28;20053;-85
2021/10/15 05:39:05;;;;;;;20.73;11.45;;;;;;;4.97;100.00;92984.03;5030741;28;20404;-83
2021/10/15 05:41:32;;;;;;;16.33;8.52;;;;;;;4.99;100.00;92980.31;5030655;28;20050;-84
2021/10/15 05:43:59;;;;;;;4.85;2.85;;;;;;;5.08;100.00;92991.97;5030897;28;20050;-84
2021/10/15 05:46:26;;;;;;;2.88;1.60;;;;;;;4.71;100.00;92937.75;5030442;28;20053;-84
2021/10/15 05:48:53;;;;;;;6.57;2.13;;;;;;;5.18;100.00;92996.78;5030795;28;20045;-84
2021/10/15 05:51:21;;;;;;;4.80;2.70;;;;;;;5.23;100.00;92988.56;5030353;28;20041;-84
2021/10/15 05:53:50;;;;;;;5.10;3.05;;;;;;;5.27;100.00;92992.34;5030564;28;20056;-83
2021/10/15 05:56:38;;;;;;;11.13;4.57;;;;;;;5.37;100.00;92989.47;5030322;28;20064;-83
2021/10/15 05:59:03;;;;;;;3.15;1.70;;;;;;;5.38;100.00;92969.91;5030128;28;20385;-84
2021/10/15 06:01:32;;;;;;;8.40;4.63;;;;;;;5.45;100.00;92965.66;5030426;28;20060;-83
2021/10/15 06:04:15;;;;;;;8.32;5.30;;;;;;;5.42;100.00;92935.47;5025201;28;20064;-83
2021/10/15 06:14:57;;;;;;;12.20;8.77;;;;;;;5.77;100.00;92972.94;5029871;28;20444;-83
2021/10/15 06:17:24;;;;;;;21.52;11.15;;;;;;;5.77;100.00;92973.72;5029556;28;20049;-84
2021/10/15 06:19:53;;;;;;;32.15;19.27;;;;;;;5.78;100.00;92964.34;5029696;28;20099;-84
2021/10/15 06:22:20;;;;;;;27.52;13.60;;;;;;;5.74;100.00;92963.91;5029938;28;20444;-84
2021/10/15 06:24:49;;;;;;;36.20;21.92;;;;;;;6.05;100.00;92995.91;5029986;28;20400;-84
2021/10/15 06:27:18;;;;;;;29.02;15.43;;;;;;;5.96;100.00;92984.22;5030278;28;20048;-84
2021/10/15 06:29:45;;;;;;;46.88;27.40;;;;;;;6.00;100.00;92998.19;5030135;28;20064;-83
2021/10/15 06:32:12;;;;;;;15.48;8.60;;;;;;;5.59;100.00;92969.88;5030483;28;20053;-84
2021/10/15 06:34:39;;;;;;;18.73;9.68;;;;;;;5.56;100.00;92977.88;5030231;28;20057;-84
2021/10/15 06:37:06;;;;;;;19.63;10.60;;;;;;;5.28;100.00;92926.94;5030205;28;20095;-84
2021/10/15 06:39:33;;;;;;;12.88;7.57;;;;;;;5.65;100.00;92982.84;5030535;28;20064;-85
2021/10/15 06:42:00;;;;;;;12.13;7.30;;;;;;;5.62;100.00;92948.34;5030075;28;20049;-85
2021/10/15 06:44:28;;;;;;;11.35;6.50;;;;;;;5.70;100.00;92945.63;5030173;28;20049;-85
2021/10/15 06:46:55;;;;;;;13.68;6.88;;;;;;;6.07;100.00;92978.63;5030695;28;20076;-85
2021/10/15 06:49:22;;;;;;;20.25;9.25;;;;;;;5.99;100.00;92954.06;5030416;28;20054;-84
2021/10/15 06:51:49;;;;;;;13.43;7.57;;;;;;;5.92;100.00;92965.22;5029725;28;21137;-84
2021/10/15 06:54:16;;;;;;;11.60;6.68;;;;;;;5.78;100.00;92928.66;5029163;28;20060;-84
2021/10/15 06:56:43;;;;;;;12.90;7.10;;;;;;;5.89;100.00;92946.75;5029389;28;20049;-83
2021/10/15 06:59:10;;;;;;;12.73;7.05;;;;;;;5.87;100.00;92938.50;5029229;28;20124;-85
2021/10/15 07:01:38;;;;;;;12.82;6.28;;;;;;;5.99;100.00;92932.88;5029418;28;20057;-85
2021/10/15 07:04:06;;;;;;;6.82;4.03;;;;;;;6.01;100.00;92951.31;5029314;28;20111;-84
2021/10/15 07:06:34;;;;;;;12.43;5.25;;;;;;;6.19;100.00;92967.91;5029667;28;20054;-85
2021/10/15 07:09:01;;;;;;;18.15;9.00;;;;;;;5.77;100.00;92919.41;5029156;28;20719;-85
2021/10/15 07:11:27;;;;;;;16.88;8.50;;;;;;;5.74;100.00;92939.22;5029422;28;20057;-84
2021/10/15 07:13:54;;;;;;;20.85;10.98;;;;;;;6.05;100.00;92969.59;5029118;28;20547;-84
2021/10/15 07:16:21;;;;;;;23.73;12.30;;;;;;;5.53;100.00;92903.59;5029290;28;20400;-84
2021/10/15 07:18:49;;;;;;;21.48;11.63;;;;;;;5.79;100.00;92956.47;5029435;28;20060;-85
2021/10/15 07:21:16;;;;;;;16.48;9.75;;;;;;;5.55;100.00;92902.44;5029471;28;20049;-85
2021/10/15 07:23:43;;;;;;;11.20;7.05;;;;;;;5.57;100.00;92915.78;5029141;28;20060;-85
2021/10/15 07:26:11;;;;;;;18.85;9.35;;;;;;;5.84;100.00;92961.81;5029241;28;20136;-85
2021/10/15 07:28:38;;;;;;;20.90;11.50;;;;;;;5.97;100.00;92966.22;5029417;28;20547;-84
2021/10/15 07:31:05;;;;;;;20.67;12.80;;;;;;;5.93;100.00;92982.06;5032746;28;20061;-84
2021/10/15 07:33:32;;;;;;;18.63;10.65;;;;;;;6.01;100.00;92966.63;5032984;28;20045;-84
2021/10/15 07:36:00;;;;;;;15.30;8.20;;;;;;;6.07;100.00;92978.63;5033193;28;20046;-84
2021/10/15 07:38:27;;;;;;;12.35;7.45;;;;;;;5.88;100.00;92944.41;5033053;28;20136;-85
2021/10/15 07:40:54;;;;;;;21.90;11.13;;;;;;;5.98;100.00;92955.03;5032787;28;20054;-84
2021/10/15 07:43:21;;;;;;;26.65;14.65;;;;;;;6.27;100.00;92983.88;5032872;28;20085;-84
2021/10/15 07:45:48;;;;;;;21.33;12.93;;;;;;;6.30;100.00;92975.06;5033075;28;20132;-85
2021/10/15 07:48:15;;;;;;;37.88;23.40;;;;;;;6.26;100.00;92966.22;5032806;28;20060;-84
2021/10/15 07:50:43;;;;;;;31.55;20.92;;;;;;;6.27;100.00;92953.28;5032890;28;20602;-84
2021/10/15 07:53:11;;;;;;;19.48;10.32;;;;;;;5.58;100.00;92853.66;5032666;28;20504;-84
2021/10/15 07:55:38;;;;;;;8.45;5.88;;;;;;;6.26;100.00;92989.94;5032933;28;20045;-84
2021/10/15 07:58:04;;;;;;;25.10;14.70;;;;;;;6.40;100.00;92995.88;5032273;28;20053;-84
2021/10/15 08:00:32;;;;;;;38.92;25.73;;;;;;;6.38;100.00;92972.34;5032434;28;20049;-84
2021/10/15 08:02:58;;;;;;;14.05;9.35;;;;;;;5.99;100.00;92915.84;5032647;28;20412;-85
2021/10/15 08:05:25;;;;;;;12.38;8.30;;;;;;;6.19;100.00;92942.41;5032611;28;20060;-84
2021/10/15 08:07:52;;;;;;;8.48;5.32;;;;;;;6.36;100.00;92958.19;5032861;28;20045;-84
2021/10/15 08:10:20;;;;;;;9.32;6.60;;;;;;;6.27;100.00;92944.81;5032570;28;20594;-84
2021/10/15 08:12:47;;;;;;;7.55;4.97;;;;;;;6.47;100.00;92970.41;5032251;28;20056;-84
2021/10/15 08:15:16;;;;;;;8.50;5.32;;;;;;;6.47;100.00;92964.53;5032874;28;20054;-84
2021/10/15 08:17:44;;;;;;;5.63;3.72;;;;;;;6.00;100.00;92908.94;5032364;28;20050;-85
2021/10/15 08:20:13;;;;;;;6.05;3.67;;;;;;;5.92;100.00;92893.81;5032784;28;20412;-84
2021/10/15 08:22:40;;;;;;;7.38;4.30;;;;;;;6.35;100.00;92946.44;5032937;28;20050;-84
2021/10/15 08:25:08;;;;;;;7.68;5.22;;;;;;;6.36;100.00;92946.25;5032499;28;20045;-85
2021/10/15 08:27:37;;;;;;;11.13;5.80;;;;;;;6.52;100.00;92945.13;5032643;28;20053;-85
2021/10/15 08:30:04;;;;;;;13.65;7.60;;;;;;;6.60;100.00;92971.44;5032492;28;20119;-85
2021/10/15 08:32:31;;;;;;;11.20;6.60;;;;;;;6.62;100.00;92969.50;5032815;28;20080;-85
2021/10/15 08:34:57;;;;;;;8.95;6.07;;;;;;;6.48;100.00;92966.09;5032845;28;20053;-84
2021/10/15 08:37:24;;;;;;;7.55;5.10;;;;;;;6.40;100.00;92975.47;5032322;28;20052;-84
2021/10/15 08:39:52;;;;;;;10.00;6.30;;;;;;;6.45;100.00;92972.38;5032659;28;20060;-85
2021/10/15 08:42:19;;;;;;;21.70;13.95;;;;;;;6.06;100.00;92884.50;5032477;28;20049;-86
2021/10/15 08:44:47;;;;;;;14.35;7.75;;;;;;;6.43;100.00;92940.38;5032481;28;20438;-85
2021/10/15 08:47:18;;;;;;;29.60;16.92;;;;;;;6.74;100.00;92956.94;5032385;28;20049;-85
2021/10/15 08:49:46;;;;;;;23.42;15.77;;;;;;;6.37;100.00;92886.59;5032156;28;20053;-85
2021/10/15 08:52:15;;;;;;;19.23;12.15;;;;;;;6.68;100.00;92927.91;5032180;28;20762;-86
2021/10/15 08:54:43;;;;;;;15.63;9.20;;;;;;;7.05;100.00;92979.41;5032076;28;20060;-86
2021/10/15 08:57:10;;;;;;;16.52;10.57;;;;;;;6.81;100.00;92925.34;5032090;28;20056;-85
2021/10/15 08:59:39;;;;;;;11.18;7.57;;;;;;;6.82;100.00;92910.84;5032326;28;20057;-86
2021/10/15 09:02:15;;;;;;;16.75;8.65;;;;;;;7.07;100.00;92941.72;5032220;28;20050;-86
2021/10/15 09:04:47;;;;;;;30.52;16.30;;;;;;;6.90;100.00;92909.88;5031968;28;20555;-86
2021/10/15 09:07:15;;;;;;;32.17;16.92;;;;;;;6.77;100.00;92878.22;5032237;28;20053;-86
2021/10/15 09:09:44;;;;;;;24.05;14.90;;;;;;;7.47;100.00;92976.75;5032278;28;20057;-86
2021/10/15 09:12:12;;;;;;;17.02;9.90;;;;;;;7.12;100.00;92918.13;5032091;28;20057;-86
2021/10/15 09:14:39;;;;;;;13.80;8.75;;;;;;;7.03;100.00;92902.22;5031868;28;20061;-86
2021/10/15 09:17:09;;;;;;;18.70;13.15;;;;;;;7.61;100.00;92990.31;5032243;28;20061;-85
2021/10/15 09:19:40;;;;;;;14.23;7.82;;;;;;;7.45;100.00;92957.47;5032058;28;20059;-84
2021/10/15 09:22:13;;;;;;;15.27;9.73;;;;;;;7.32;100.00;92928.38;5031424;28;20507;-84
2021/10/15 09:24:46;;;;;;;12.93;8.80;;;;;;;7.22;100.00;92928.75;5031568;28;20516;-85
2021/10/15 09:27:19;;;;;;;13.07;8.18;;;;;;;7.32;100.00;92950.59;5031668;28;20048;-85
2021/10/15 09:29:48;;;;;;;11.07;7.88;;;;;;;7.57;100.00;92976.34;5031415;28;20517;-84
2021/10/15 09:32:15;;;;;;;11.00;7.28;;;;;;;7.57;100.00;92991.69;5031623;28;20053;-84
2021/10/15 09:34:45;;;;;;;11.02;7.63;;;;;;;7.41;100.00;93002.28;5031394;28;20806;-85
2021/10/15 09:37:18;;;;;;;11.93;7.25;;;;;;;7.38;100.00;92987.34;5031490;28;20149;-85
2021/10/15 09:39:45;;;;;;;11.60;7.20;;;;;;;7.51;100.00;92999.34;5031372;28;20053;-85
2021/10/15 09:42:22;;;;;;;9.85;6.40;;;;;;;7.41;100.00;93004.84;5031288;28;20045;-84
2021/10/15 09:44:48;;;;;;;9.63;6.82;;;;;;;7.32;100.00;92984.56;5031544;28;20088;-84
2021/10/15 09:47:17;;;;;;;9.48;6.45;;;;;;;7.39;100.00;92983.78;5037660;28;20057;-85
2021/10/15 09:49:50;;;;;;;11.32;6.97;;;;;;;7.29;100.00;92987.53;5038935;28;20123;-85
2021/10/15 09:52:25;;;;;;;11.20;7.05;;;;;;;7.17;100.00;92997.53;5037439;28;20053;-84
2021/10/15 09:54:59;;;;;;;10.07;7.20;;;;;;;7.18;100.00;92994.00;5040369;28;20057;-85
2021/10/15 09:57:31;;;;;;;11.38;7.85;;;;;;;7.09;100.00;92977.28;5038326;28;20068;-85
2021/10/15 09:59:59;;;;;;;14.23;8.45;;;;;;;7.01;100.00;92968.03;5039540;28;20507;-84
2021/10/15 10:02:26;;;;;;;14.35;9.15;;;;;;;7.27;100.00;93002.25;5040249;28;20061;-85
2021/10/15 10:04:55;;;;;;;11.73;8.68;;;;;;;7.11;100.00;92982.97;5041441;28;20057;-85
2021/10/15 10:07:22;;;;;;;15.50;8.93;;;;;;;7.30;100.00;93007.00;5037706;28;20045;-85
2021/10/15 10:09:49;;;;;;;13.18;7.57;;;;;;;7.14;100.00;92992.81;5039777;28;20127;-84
2021/10/15 10:12:17;;;;;;;13.25;9.20;;;;;;;7.06;100.00;92982.78;5041244;28;20766;-84
2021/10/15 10:14:44;;;;;;;13.20;8.43;;;;;;;7.15;100.00;93006.38;5028602;28;20136;-85
2021/10/15 10:17:13;;;;;;;11.57;7.25;;;;;;;7.25;100.00;92998.31;5029392;28;20401;-84
2021/10/15 10:19:43;;;;;;;10.52;6.50;;;;;;;7.07;100.00;92984.34;5030689;28;20060;-85
2021/10/15 10:22:11;;;;;;;10.07;7.10;;;;;;;6.95;100.00;92966.25;5028580;28;20061;-85
2021/10/15 10:24:45;;;;;;;12.98;8.38;;;;;;;6.91;100.00;92935.19;5032783;28;20541;-84
2021/10/15 10:27:12;;;;;;;12.07;8.55;;;;;;;7.01;100.00;92962.94;5030605;28;20064;-84
2021/10/15 10:29:52;;;;;;;13.82;11.63;;;;;;;6.79;100.00;92927.34;5030159;28;20057;-85
2021/10/15 10:32:19;;;;;;;17.38;12.65;;;;;;;6.99;100.00;92957.22;5030517;28;20053;-85
2021/10/15 10:34:46;;;;;;;18.67;14.43;;;;;;;7.08;100.00;92971.38;5029725;28;20053;-85
2021/10/15 10:37:18;;;;;;;20.13;13.80;;;;;;;7.04;100.00;92966.88;5030105;28;20511;-85
2021/10/15 10:39:46;;;;;;;20.83;16.58;;;;;;;6.76;100.00;92916.72;5029727;28;20132;-85
2021/10/15 10:42:14;;;;;;;15.80;13.60;;;;;;;7.12;100.00;92968.47;5029696;28;20057;-85
2021/10/15 10:45:01;;;;;;;22.42;14.15;;;;;;;6.99;100.00;92948.78;5030036;28;20049;-85
2021/10/15 10:47:29;;;;;;;16.38;12.75;;;;;;;7.00;100.00;92965.69;5029822;28;20492;-87
2021/10/15 10:50:13;;;;;;;15.50;12.63;;;;;;;7.15;100.00;92970.59;5030288;28;20060;-84
2021/10/15 10:53:08;;;;;;;14.07;9.73;;;;;;;7.02;100.00;92945.81;5030229;28;20103;-85
2021/10/15 10:55:39;;;;;;;17.25;11.40;;;;;;;6.89;100.00;92916.75;5029945;28;20516;-85
2021/10/15 10:58:30;;;;;;;20.15;12.88;;;;;;;7.24;100.00;92948.22;5029902;28;20045;-85
2021/10/15 11:01:20;;;;;;;20.65;12.73;;;;;;;7.23;100.00;92934.69;5030115;28;20046;-86
2021/10/15 11:03:47;;;;;;;15.93;11.02;;;;;;;7.31;100.00;92936.25;5028357;28;20049;-86
2021/10/15 11:06:14;;;;;;;12.93;9.30;;;;;;;7.36;100.00;92928.75;5029397;28;20103;-85
2021/10/15 11:08:43;;;;;;;13.93;10.15;;;;;;;7.13;100.00;92880.63;5029547;28;20057;-85
2021/10/15 11:11:45;;;;;;;13.30;8.80;;;;;;;7.54;100.00;92943.50;5029354;28;20080;-85
2021/10/15 11:14:24;;;;;;;11.57;9.02;;;;;;;7.17;100.00;92889.47;5029368;28;20060;-85
2021/10/15 11:16:51;;;;;;;15.55;10.18;;;;;;;7.22;100.00;92882.78;5029228;28;20053;-85
2021/10/15 11:19:21;;;;;;;16.02;10.70;;;;;;;7.49;100.00;92897.31;5029536;28;20064;-85
2021/10/15 11:22:02;;;;;;;14.55;11.02;;;;;;;7.75;100.00;92916.16;5029431;28;20468;-85
2021/10/15 11:24:30;;;;;;;22.58;13.95;;;;;;;7.85;100.00;92902.97;5029062;28;20623;-85
2021/10/15 11:26:57;;;;;;;16.70;12.73;;;;;;;7.44;100.00;92831.47;5029304;28;20041;-85
2021/10/15 11:29:24;;;;;;;17.55;10.93;;;;;;;7.96;100.00;92891.34;5029409;28;20054;-85
2021/10/15 11:31:56;;;;;;;16.40;10.18;;;;;;;7.86;100.00;92859.28;5029718;28;20064;-85
2021/10/15 11:34:23;;;;;;;17.83;10.48;;;;;;;8.01;100.00;92878.75;5029347;28;20063;-86
2021/10/15 11:37:04;;;;;;;17.52;10.88;;;;;;;8.15;100.00;92879.47;5029508;28;20049;-86
2021/10/15 11:39:32;;;;;;;17.45;11.80;;;;;;;7.72;100.00;92789.53;5029952;28;20152;-85
2021/10/15 11:41:59;;;;;;;13.57;9.98;;;;;;;8.26;100.00;92844.78;5025877;28;20057;-85